createdAt,value
2017-11-10T00:00:29.161Z,35.10
2017-11-10T00:03:04.286Z,33.27
2017-11-10T00:05:39.527Z,41.30
2017-11-10T00:08:14.280Z,35.43
2017-11-10T00:10:49.311Z,36.93
2017-11-10T00:13:24.137Z,38.33
2017-11-10T00:15:59.969Z,39.53
2017-11-10T00:18:34.815Z,36.10
2017-11-10T00:21:09.872Z,26.47
2017-11-10T00:23:44.957Z,37.67
2017-11-10T00:26:20.458Z,39.00
2017-11-10T00:28:55.536Z,34.93
2017-11-10T00:31:30.352Z,37.23
2017-11-10T00:34:05.236Z,38.67
2017-11-10T00:36:40.121Z,28.37
2017-11-10T00:39:15.068Z,36.80
2017-11-10T00:41:49.788Z,39.40
2017-11-10T00:44:24.910Z,38.03
2017-11-10T00:46:59.256Z,30.47
2017-11-10T00:49:34.537Z,30.13
2017-11-10T00:52:10.448Z,31.00
2017-11-10T00:54:45.219Z,32.93
2017-11-10T00:57:20.248Z,31.33
2017-11-10T00:59:55.593Z,30.80
2017-11-10T01:02:30.451Z,31.10
2017-11-10T01:05:05.588Z,30.53
2017-11-10T01:07:40.416Z,33.47
2017-11-10T01:10:15.208Z,33.13
2017-11-10T01:12:50.313Z,30.13
2017-11-10T01:15:25.308Z,24.97
2017-11-10T01:18:00.990Z,29.17
2017-11-10T01:20:36.427Z,27.60
2017-11-10T01:23:11.778Z,32.90
2017-11-10T01:25:46.880Z,23.73
2017-11-10T01:28:21.756Z,28.60
2017-11-10T01:30:56.313Z,29.07
2017-11-10T01:33:31.676Z,33.10
2017-11-10T01:36:07.312Z,26.90
2017-11-10T01:38:41.931Z,27.10
2017-11-10T01:41:17.133Z,28.13
2017-11-10T01:43:52.974Z,32.80
2017-11-10T01:46:27.877Z,32.20
2017-11-10T01:49:02.888Z,28.70
2017-11-10T01:51:38.181Z,32.87
2017-11-10T01:54:12.932Z,29.77
2017-11-10T01:56:47.507Z,28.30
2017-11-10T01:59:21.669Z,27.93
2017-11-10T02:01:56.942Z,30.10
2017-11-10T02:04:32.222Z,30.27
2017-11-10T02:07:07.106Z,32.00
2017-11-10T02:09:42.096Z,23.87
2017-11-10T02:12:16.625Z,34.23
2017-11-10T02:14:51.043Z,31.97
2017-11-10T02:17:26.148Z,30.80
2017-11-10T02:20:01.488Z,32.37
2017-11-10T02:22:35.896Z,30.83
2017-11-10T02:25:10.926Z,31.70
2017-11-10T02:27:45.861Z,29.37
2017-11-10T02:30:20.893Z,28.00
2017-11-10T02:32:55.324Z,34.43
2017-11-10T02:35:30.092Z,31.03
2017-11-10T02:38:04.970Z,34.97
2017-11-10T02:40:39.941Z,29.77
2017-11-10T02:43:14.264Z,34.00
2017-11-10T02:45:49.637Z,34.00
2017-11-10T02:48:24.363Z,33.43
2017-11-10T02:50:58.838Z,34.97
2017-11-10T02:53:33.949Z,35.17
2017-11-10T02:56:08.524Z,34.30
2017-11-10T02:58:43.772Z,36.00
2017-11-10T03:01:18.101Z,33.40
2017-11-10T03:03:53.330Z,35.47
2017-11-10T03:06:27.753Z,32.27
2017-11-10T03:09:02.513Z,33.10
2017-11-10T03:11:37.693Z,34.70
2017-11-10T03:14:12.221Z,37.00
2017-11-10T03:16:47.436Z,40.60
2017-11-10T03:19:22.096Z,34.67
2017-11-10T03:21:57.600Z,33.87
2017-11-10T03:24:32.180Z,29.27
2017-11-10T03:27:07.404Z,36.80
2017-11-10T03:29:42.336Z,36.57
2017-11-10T03:32:17.708Z,35.07
2017-11-10T03:34:52.449Z,39.50
2017-11-10T03:37:27.424Z,33.53
2017-11-10T03:40:02.653Z,38.30
2017-11-10T03:42:37.229Z,43.30
2017-11-10T03:45:12.028Z,40.37
2017-11-10T03:47:47.025Z,41.50
2017-11-10T03:50:21.644Z,33.37
2017-11-10T03:52:57.801Z,42.67
2017-11-10T03:55:33.158Z,38.53
2017-11-10T03:58:08.237Z,34.50
2017-11-10T04:00:42.853Z,35.70
2017-11-10T04:03:17.713Z,34.30
2017-11-10T04:05:53.008Z,38.77
2017-11-10T04:08:28.160Z,40.40
2017-11-10T04:11:02.397Z,28.40
2017-11-10T04:13:37.317Z,31.07
2017-11-10T04:16:12.052Z,31.97
2017-11-10T04:18:47.241Z,33.63
2017-11-10T04:21:21.842Z,34.23
2017-11-10T04:23:56.254Z,39.20
2017-11-10T04:26:31.109Z,44.27
2017-11-10T04:29:05.738Z,42.97
2017-11-10T04:31:40.468Z,42.10
2017-11-10T04:34:15.794Z,49.43
2017-11-10T04:36:50.461Z,46.43
2017-11-10T04:39:25.773Z,44.20
2017-11-10T04:42:01.104Z,49.20
2017-11-10T04:44:35.905Z,51.93
2017-11-10T04:47:10.893Z,63.63
2017-11-10T04:49:46.281Z,67.77
2017-11-10T04:52:20.692Z,62.50
2017-11-10T04:54:55.401Z,62.27
2017-11-10T04:57:30.651Z,55.33
2017-11-10T05:00:05.764Z,69.63
2017-11-10T05:02:40.454Z,67.73
2017-11-10T05:05:15.769Z,67.27
2017-11-10T05:07:50.739Z,68.40
2017-11-10T05:10:27.020Z,65.00
2017-11-10T05:13:02.090Z,70.23
2017-11-10T05:15:37.136Z,67.60
2017-11-10T05:18:12.704Z,52.37
2017-11-10T05:20:47.428Z,59.30
2017-11-10T05:23:22.609Z,63.57
2017-11-10T05:25:57.312Z,75.47
2017-11-10T05:28:32.536Z,58.50
2017-11-10T05:31:06.810Z,58.37
2017-11-10T05:33:41.088Z,62.13
2017-11-10T05:36:15.235Z,53.10
2017-11-10T05:38:50.468Z,65.73
2017-11-10T05:41:25.091Z,58.30
2017-11-10T05:43:59.915Z,61.83
2017-11-10T05:46:34.988Z,62.27
2017-11-10T05:49:09.688Z,49.80
2017-11-10T05:51:44.228Z,55.83
2017-11-10T05:54:20.150Z,36.97
2017-11-10T05:56:55.156Z,42.27
2017-11-10T05:59:30.257Z,47.47
2017-11-10T06:02:04.102Z,41.10
2017-11-10T06:04:38.711Z,36.97
2017-11-10T06:07:13.609Z,46.60
2017-11-10T06:09:48.850Z,42.10
2017-11-10T06:12:23.656Z,40.47
2017-11-10T06:14:58.901Z,47.87
2017-11-10T06:17:33.948Z,40.63
2017-11-10T06:20:09.140Z,41.30
2017-11-10T06:22:43.711Z,51.80
2017-11-10T06:25:18.689Z,53.30
2017-11-10T06:27:53.185Z,43.57
2017-11-10T06:30:28.044Z,36.40
2017-11-10T06:33:02.907Z,53.43
2017-11-10T06:35:37.608Z,55.43
2017-11-10T06:38:12.544Z,49.77
2017-11-10T06:40:47.526Z,44.10
2017-11-10T06:43:22.191Z,46.23
2017-11-10T06:45:57.154Z,49.70
2017-11-10T06:48:32.406Z,43.00
2017-11-10T06:51:07.340Z,39.40
2017-11-10T06:53:42.037Z,43.43
2017-11-10T06:56:16.641Z,39.73
2017-11-10T06:58:51.725Z,45.87
2017-11-10T07:01:26.709Z,47.70
2017-11-10T07:04:01.648Z,40.27
2017-11-10T07:06:36.173Z,39.30
2017-11-10T07:09:11.661Z,43.67
2017-11-10T07:11:46.859Z,42.27
2017-11-10T07:14:21.988Z,46.37
2017-11-10T07:16:56.965Z,39.87
2017-11-10T07:19:31.737Z,44.40
2017-11-10T07:22:06.461Z,43.10
2017-11-10T07:24:41.452Z,38.80
2017-11-10T07:27:16.295Z,49.93
2017-11-10T07:29:51.317Z,41.57
2017-11-10T07:32:26.177Z,55.60
2017-11-10T07:35:01.865Z,56.37
2017-11-10T07:37:36.713Z,59.67
2017-11-10T07:40:12.326Z,53.03
2017-11-10T07:42:47.200Z,48.73
2017-11-10T07:45:22.129Z,49.60
2017-11-10T07:47:57.965Z,59.40
2017-11-10T07:50:33.632Z,51.80
2017-11-10T07:53:08.609Z,39.20
2017-11-10T07:55:43.498Z,66.33
2017-11-10T07:58:18.196Z,56.30
2017-11-10T08:00:53.546Z,68.90
2017-11-10T08:03:28.952Z,56.70
2017-11-10T08:06:03.722Z,70.30
2017-11-10T08:08:38.549Z,64.23
2017-11-10T08:11:13.500Z,63.10
2017-11-10T08:13:48.128Z,79.53
2017-11-10T08:16:22.962Z,61.30
2017-11-10T08:18:57.544Z,65.57
2017-11-10T08:21:32.574Z,65.90
2017-11-10T08:24:07.357Z,71.83
2017-11-10T08:26:42.399Z,62.60
2017-11-10T08:29:16.934Z,69.43
2017-11-10T08:31:51.423Z,57.47
2017-11-10T08:34:26.695Z,62.77
2017-11-10T08:37:01.392Z,73.33
2017-11-10T08:39:36.237Z,98.87
2017-11-10T08:42:11.913Z,71.33
2017-11-10T08:44:46.750Z,78.70
2017-11-10T08:47:21.661Z,70.27
2017-11-10T08:49:56.579Z,85.00
2017-11-10T08:52:30.974Z,80.90
2017-11-10T08:55:06.079Z,100.67
2017-11-10T08:57:40.761Z,89.33
2017-11-10T09:00:15.614Z,90.30
2017-11-10T09:02:50.320Z,81.73
2017-11-10T09:05:26.029Z,86.57
2017-11-10T09:08:00.657Z,75.90
2017-11-10T09:10:35.587Z,92.13
2017-11-10T09:13:10.231Z,51.43
2017-11-10T09:15:44.840Z,60.53
2017-11-10T09:18:19.408Z,63.83
2017-11-10T09:20:54.258Z,49.50
2017-11-10T09:23:29.222Z,56.57
2017-11-10T09:26:03.665Z,47.40
2017-11-10T09:28:44.406Z,45.50
2017-11-10T09:44:59.560Z,41.03
2017-11-10T09:47:39.597Z,44.53
2017-11-10T09:50:20.182Z,28.23
2017-11-10T09:52:58.509Z,41.53
2017-11-10T09:55:41.221Z,48.70
2017-11-10T09:58:29.269Z,30.73
2017-11-10T10:01:07.246Z,38.37
2017-11-10T10:03:42.837Z,30.83
2017-11-10T10:06:22.368Z,36.80
2017-11-10T10:08:58.432Z,40.67
2017-11-10T10:11:38.881Z,36.87
2017-11-10T10:14:13.965Z,32.10
2017-11-10T10:16:54.290Z,40.63
2017-11-10T10:19:29.773Z,35.43
2017-11-10T10:22:05.041Z,33.27
2017-11-10T10:24:39.381Z,37.00
2017-11-10T10:27:14.317Z,38.43
2017-11-10T10:29:49.316Z,41.10
2017-11-10T10:32:24.569Z,32.87
2017-11-10T10:34:59.558Z,33.57
2017-11-10T10:37:34.415Z,32.50
2017-11-10T10:40:08.781Z,35.90
2017-11-10T10:42:43.316Z,35.30
2017-11-10T10:45:18.362Z,37.87
2017-11-10T10:47:53.386Z,32.93
2017-11-10T10:50:28.101Z,40.33
2017-11-10T10:53:03.300Z,37.70
2017-11-10T10:55:38.245Z,26.73
2017-11-10T10:58:13.924Z,30.80
2017-11-10T11:00:48.933Z,31.27
2017-11-10T11:03:23.821Z,29.10
2017-11-10T11:05:59.369Z,30.93
2017-11-10T11:08:33.957Z,32.43
2017-11-10T11:11:08.793Z,28.30
2017-11-10T11:13:44.022Z,28.50
2017-11-10T11:16:18.961Z,26.83
2017-11-10T11:18:53.982Z,28.43
2017-11-10T11:21:28.669Z,34.33
2017-11-10T11:24:03.361Z,31.23
2017-11-10T11:26:38.617Z,28.60
2017-11-10T11:29:13.924Z,33.40
2017-11-10T11:31:49.086Z,36.10
2017-11-10T11:34:23.519Z,30.37
2017-11-10T11:36:58.553Z,29.10
2017-11-10T11:39:33.637Z,30.27
2017-11-10T11:42:07.947Z,26.87
2017-11-10T11:44:43.010Z,33.40
2017-11-10T11:47:17.845Z,33.10
2017-11-10T11:49:52.565Z,30.53
2017-11-10T11:52:27.353Z,24.37
2017-11-10T11:55:02.369Z,32.07
2017-11-10T11:57:37.166Z,35.67
2017-11-10T12:00:11.678Z,29.73
2017-11-10T12:02:47.161Z,25.37
2017-11-10T12:05:21.869Z,32.10
2017-11-10T12:07:56.988Z,22.13
2017-11-10T12:10:31.756Z,32.73
2017-11-10T12:13:06.740Z,32.53
2017-11-10T12:15:41.503Z,25.83
2017-11-10T12:18:16.327Z,25.10
2017-11-10T12:20:50.642Z,27.23
2017-11-10T12:23:25.347Z,24.80
2017-11-10T12:25:59.837Z,20.60
2017-11-10T12:28:34.625Z,15.40
2017-11-10T12:31:09.247Z,16.37
2017-11-10T12:33:44.374Z,21.57
2017-11-10T12:36:19.122Z,19.57
2017-11-10T12:38:54.089Z,17.23
2017-11-10T12:41:28.949Z,22.27
2017-11-10T12:44:03.265Z,15.70
2017-11-10T12:46:38.357Z,19.37
2017-11-10T12:49:13.090Z,12.60
2017-11-10T12:51:47.711Z,14.93
2017-11-10T12:54:22.962Z,15.50
2017-11-10T12:56:57.938Z,16.83
2017-11-10T12:59:33.761Z,14.80
2017-11-10T13:02:08.257Z,13.17
2017-11-10T13:04:43.285Z,17.33
2017-11-10T13:07:18.569Z,12.83
2017-11-10T13:09:54.138Z,11.63
2017-11-10T13:12:29.319Z,11.87
2017-11-10T13:15:04.341Z,14.10
2017-11-10T13:17:39.434Z,12.33
2017-11-10T13:20:14.724Z,13.60
2017-11-10T13:22:49.820Z,14.27
2017-11-10T13:25:25.009Z,11.63
2017-11-10T13:27:59.840Z,17.33
2017-11-10T13:30:34.642Z,10.90
2017-11-10T13:33:09.386Z,10.10
2017-11-10T13:35:44.172Z,11.57
2017-11-10T13:38:18.846Z,13.27
2017-11-10T13:40:53.652Z,13.07
2017-11-10T13:43:28.644Z,11.43
2017-11-10T13:46:03.496Z,15.47
2017-11-10T13:48:39.412Z,9.23
2017-11-10T13:51:14.329Z,11.53
2017-11-10T13:53:48.981Z,12.40
2017-11-10T13:56:23.833Z,9.07
2017-11-10T13:58:58.614Z,9.50
2017-11-10T14:01:34.508Z,5.23
2017-11-10T14:04:09.092Z,1.90
2017-11-10T14:06:44.242Z,3.67
2017-11-10T14:09:18.980Z,2.60
2017-11-10T14:11:53.585Z,3.37
2017-11-10T14:14:28.824Z,3.37
2017-11-10T14:17:03.857Z,4.43
2017-11-10T14:19:38.996Z,2.20
2017-11-10T14:22:14.162Z,1.90
2017-11-10T14:24:48.631Z,0.70
2017-11-10T14:27:23.252Z,5.90
2017-11-10T14:29:57.878Z,4.53
2017-11-10T14:32:32.658Z,7.37
2017-11-10T14:35:07.461Z,3.23
2017-11-10T14:37:42.320Z,3.90
2017-11-10T14:40:17.152Z,1.70
2017-11-10T14:42:52.003Z,2.20
2017-11-10T14:45:26.844Z,5.10
2017-11-10T14:48:01.733Z,2.50
2017-11-10T14:50:36.350Z,5.13
2017-11-10T14:53:11.245Z,2.07
2017-11-10T14:55:45.924Z,1.70
2017-11-10T14:58:20.672Z,2.77
2017-11-10T15:00:55.381Z,2.73
2017-11-10T15:03:30.083Z,1.63
2017-11-10T15:06:04.746Z,1.83
2017-11-10T15:08:39.352Z,2.73
2017-11-10T15:11:13.814Z,6.13
2017-11-10T15:13:48.841Z,4.03
2017-11-10T15:16:23.528Z,5.83
2017-11-10T15:18:58.628Z,8.60
2017-11-10T15:21:33.465Z,1.80
2017-11-10T15:24:08.152Z,3.60
2017-11-10T15:26:42.977Z,3.60
2017-11-10T15:29:18.141Z,5.83
2017-11-10T15:31:53.148Z,4.73
2017-11-10T15:34:27.721Z,3.37
2017-11-10T15:37:02.707Z,2.40
2017-11-10T15:39:37.928Z,10.27
2017-11-10T15:42:13.228Z,9.13
2017-11-10T15:44:47.332Z,14.83
2017-11-10T15:47:22.157Z,13.13
2017-11-10T15:49:56.557Z,12.33
2017-11-10T15:52:31.924Z,23.40
2017-11-10T15:55:06.785Z,8.40
2017-11-10T15:57:41.600Z,3.73
2017-11-10T16:00:16.163Z,11.50
2017-11-10T16:02:51.280Z,5.10
2017-11-10T16:05:26.030Z,4.53
2017-11-10T16:08:00.745Z,5.73
2017-11-10T16:10:35.737Z,4.53
2017-11-10T16:13:10.548Z,4.30
2017-11-10T16:15:45.065Z,3.17
2017-11-10T16:18:19.273Z,6.03
2017-11-10T16:20:54.280Z,11.50
2017-11-10T16:23:29.095Z,11.17
2017-11-10T16:26:03.865Z,3.63
2017-11-10T16:28:38.616Z,2.40
2017-11-10T16:31:13.740Z,7.90
2017-11-10T16:33:48.368Z,5.33
2017-11-10T16:36:22.725Z,3.43
2017-11-10T16:38:58.038Z,2.10
2017-11-10T16:41:32.829Z,2.67
2017-11-10T16:44:07.511Z,7.50
2017-11-10T16:46:42.134Z,4.17
2017-11-10T16:49:16.913Z,7.53
2017-11-10T16:51:51.717Z,3.37
2017-11-10T16:54:26.421Z,5.27
2017-11-10T16:57:00.957Z,3.83
2017-11-10T16:59:36.508Z,6.60
2017-11-10T17:02:11.516Z,6.13
2017-11-10T17:04:46.186Z,5.00
2017-11-10T17:07:20.981Z,2.90
2017-11-10T17:09:56.547Z,1.00
2017-11-10T17:12:31.461Z,1.73
2017-11-10T17:15:06.273Z,4.33
2017-11-10T17:17:40.901Z,7.73
2017-11-10T17:20:15.658Z,8.90
2017-11-10T17:22:50.007Z,4.00
2017-11-10T17:25:24.895Z,4.00
2017-11-10T17:27:59.581Z,1.80
2017-11-10T17:30:34.025Z,4.17
2017-11-10T17:33:09.215Z,3.03
2017-11-10T17:35:43.654Z,2.23
2017-11-10T17:38:18.173Z,9.07
2017-11-10T17:40:53.377Z,3.43
2017-11-10T17:43:27.617Z,5.10
2017-11-10T17:46:02.962Z,4.30
2017-11-10T17:48:37.909Z,2.10
2017-11-10T17:51:12.172Z,5.03
2017-11-10T17:53:46.858Z,6.30
2017-11-10T17:56:21.606Z,3.67
2017-11-10T17:58:56.568Z,3.63
2017-11-10T18:01:31.485Z,2.07
2017-11-10T18:04:05.950Z,1.00
2017-11-10T18:06:41.057Z,5.17
2017-11-10T18:09:15.837Z,2.50
2017-11-10T18:11:50.470Z,3.40
2017-11-10T18:14:25.714Z,6.17
2017-11-10T18:17:00.672Z,1.53
2017-11-10T18:19:35.517Z,3.40
2017-11-10T18:22:10.007Z,1.53
2017-11-10T18:24:44.667Z,5.00
2017-11-10T18:27:19.691Z,2.53
2017-11-10T18:29:54.381Z,4.37
2017-11-10T18:32:29.018Z,6.23
2017-11-10T18:35:04.189Z,2.30
2017-11-10T18:37:39.784Z,2.73
2017-11-10T18:40:14.352Z,4.63
2017-11-10T18:42:49.208Z,3.47
2017-11-10T18:45:24.480Z,3.70
2017-11-10T18:47:59.113Z,3.17
2017-11-10T18:50:34.193Z,7.73
2017-11-10T18:53:08.969Z,4.10
2017-11-10T18:55:48.693Z,2.00
2017-11-10T18:58:23.377Z,2.40
2017-11-10T19:00:57.651Z,1.30
2017-11-10T19:03:32.755Z,2.07
2017-11-10T19:06:07.505Z,3.93
2017-11-10T19:08:42.243Z,2.50
2017-11-10T19:11:17.250Z,8.70
2017-11-10T19:13:52.025Z,3.30
2017-11-10T19:16:26.941Z,3.63
2017-11-10T19:19:01.850Z,9.07
2017-11-10T19:21:36.769Z,3.97
2017-11-10T19:24:11.617Z,6.03
2017-11-10T19:26:46.695Z,6.40
2017-11-10T19:29:21.460Z,6.97
2017-11-10T19:31:56.690Z,4.73
2017-11-10T19:34:31.675Z,4.17
2017-11-10T19:37:06.657Z,4.37
2017-11-10T19:39:41.461Z,8.17
2017-11-10T19:42:15.985Z,1.77
2017-11-10T19:44:50.881Z,2.30
2017-11-10T19:47:25.550Z,3.17
2017-11-10T19:50:00.316Z,2.00
2017-11-10T19:52:35.033Z,7.23
2017-11-10T19:55:10.129Z,5.60
2017-11-10T19:57:44.960Z,7.07
2017-11-10T20:00:19.662Z,4.53
2017-11-10T20:02:55.161Z,7.07
2017-11-10T20:05:29.778Z,0.90
2017-11-10T20:08:04.346Z,4.10
2017-11-10T20:10:39.258Z,1.67
2017-11-10T20:13:14.922Z,3.37
2017-11-10T20:15:49.954Z,6.93
2017-11-10T20:18:24.662Z,7.13
2017-11-10T20:20:59.492Z,2.07
2017-11-10T20:23:34.502Z,4.93
2017-11-10T20:26:09.989Z,2.60
2017-11-10T20:28:44.768Z,3.73
2017-11-10T20:31:19.597Z,3.13
2017-11-10T20:33:54.299Z,4.17
2017-11-10T20:36:29.377Z,3.57
2017-11-10T20:39:03.502Z,3.23
2017-11-10T20:41:38.217Z,5.90
2017-11-10T20:44:13.065Z,2.87
2017-11-10T20:46:48.142Z,3.10
2017-11-10T20:49:23.998Z,3.77
2017-11-10T20:51:58.697Z,3.53
2017-11-10T20:54:33.301Z,3.10
2017-11-10T20:57:08.177Z,6.00
2017-11-10T20:59:42.546Z,4.43
2017-11-10T21:02:17.381Z,3.77
2017-11-10T21:04:52.266Z,8.27
2017-11-10T21:07:27.061Z,3.50
2017-11-10T21:10:01.904Z,5.47
2017-11-10T21:12:36.569Z,7.40
2017-11-10T21:15:12.124Z,8.63
2017-11-10T21:17:46.671Z,3.33
2017-11-10T21:20:21.295Z,3.83
2017-11-10T21:22:56.065Z,8.87
2017-11-10T21:25:30.704Z,8.23
2017-11-10T21:28:05.508Z,1.53
2017-11-10T21:30:40.375Z,1.67
2017-11-10T21:33:15.051Z,0.87
2017-11-10T21:35:50.105Z,3.03
2017-11-10T21:38:25.103Z,3.07
2017-11-10T21:41:00.011Z,4.93
2017-11-10T21:43:34.898Z,4.93
2017-11-10T21:46:09.899Z,3.60
2017-11-10T21:48:44.742Z,2.60
2017-11-10T21:51:20.633Z,10.03
2017-11-10T21:53:55.445Z,8.70
2017-11-10T21:56:29.836Z,6.37
2017-11-10T21:59:04.728Z,8.13
2017-11-10T22:01:39.738Z,6.33
2017-11-10T22:04:14.429Z,5.43
2017-11-10T22:06:49.212Z,6.37
2017-11-10T22:09:23.916Z,11.30
2017-11-10T22:11:58.704Z,9.90
2017-11-10T22:14:33.501Z,4.97
2017-11-10T22:17:08.501Z,3.07
2017-11-10T22:19:42.985Z,5.70
2017-11-10T22:22:18.038Z,1.80
2017-11-10T22:24:52.960Z,6.23
2017-11-10T22:27:27.675Z,11.67
2017-11-10T22:30:02.341Z,3.43
2017-11-10T22:32:37.349Z,7.17
2017-11-10T22:35:12.174Z,1.83
2017-11-10T22:37:46.780Z,4.97
2017-11-10T22:40:21.507Z,5.27
2017-11-10T22:42:57.361Z,2.13
2017-11-10T22:45:32.257Z,7.60
2017-11-10T22:48:07.022Z,7.83
2017-11-10T22:50:42.697Z,5.13
2017-11-10T22:53:17.550Z,3.27
2017-11-10T22:55:52.570Z,2.03
2017-11-10T22:58:27.530Z,3.97
2017-11-10T23:01:02.365Z,4.07
2017-11-10T23:03:37.367Z,10.20
2017-11-10T23:06:12.135Z,5.17
2017-11-10T23:08:47.994Z,3.20
2017-11-10T23:11:22.728Z,2.70
2017-11-10T23:13:57.529Z,3.57
2017-11-10T23:16:32.247Z,4.07
2017-11-10T23:19:07.181Z,3.53
2017-11-10T23:21:41.982Z,4.10
2017-11-10T23:24:17.674Z,5.57
2017-11-10T23:26:52.493Z,1.97
2017-11-10T23:29:27.169Z,6.03
2017-11-10T23:32:02.176Z,4.37
2017-11-10T23:34:36.978Z,3.60
2017-11-10T23:37:11.746Z,2.87
2017-11-10T23:39:46.448Z,5.97
2017-11-10T23:42:20.682Z,2.20
2017-11-10T23:44:55.893Z,6.50
2017-11-10T23:47:30.913Z,3.70
2017-11-10T23:50:04.998Z,5.57
2017-11-10T23:52:40.293Z,2.80
2017-11-10T23:55:15.078Z,3.63
2017-11-10T23:57:50.025Z,3.90
